createdAt,value
2022-10-19T00:02:23.763Z,13.50
2022-10-19T00:04:50.497Z,13.50
2022-10-19T00:07:17.284Z,13.50
2022-10-19T00:09:44.734Z,13.40
2022-10-19T00:12:12.959Z,13.30
2022-10-19T00:14:39.733Z,13.20
2022-10-19T00:17:06.482Z,13.10
2022-10-19T00:19:33.174Z,13.10
2022-10-19T00:21:59.868Z,13.10
2022-10-19T00:24:26.597Z,13.10
2022-10-19T00:26:53.359Z,13.10
2022-10-19T00:29:20.053Z,13.00
2022-10-19T00:31:51.778Z,12.90
2022-10-19T00:34:18.612Z,12.90
2022-10-19T00:36:45.449Z,12.90
2022-10-19T00:39:13.990Z,12.90
2022-10-19T00:41:41.349Z,12.90
2022-10-19T00:44:30.647Z,12.90
2022-10-19T00:47:01.849Z,12.90
2022-10-19T00:49:31.892Z,12.90
2022-10-19T00:52:10.617Z,12.90
2022-10-19T00:54:40.891Z,12.80
2022-10-19T00:57:08.943Z,12.70
2022-10-19T00:59:37.046Z,12.70
2022-10-19T01:02:05.654Z,12.70
2022-10-19T01:04:35.912Z,12.70
2022-10-19T01:07:04.986Z,12.70
2022-10-19T01:09:31.840Z,12.70
2022-10-19T01:12:09.368Z,12.70
2022-10-19T01:15:14.558Z,12.60
2022-10-19T01:18:06.101Z,12.70
2022-10-19T01:20:57.479Z,12.80
2022-10-19T01:23:55.830Z,12.80
2022-10-19T01:26:48.213Z,12.90
2022-10-19T01:29:43.780Z,12.90
2022-10-19T01:32:27.857Z,12.90
2022-10-19T01:35:19.183Z,13.00
2022-10-19T01:37:55.794Z,13.00
2022-10-19T01:40:39.016Z,13.10
2022-10-19T01:43:21.858Z,13.10
2022-10-19T01:46:13.402Z,13.00
2022-10-19T01:48:44.510Z,13.10
2022-10-19T01:51:16.915Z,13.20
2022-10-19T01:53:48.945Z,13.10
2022-10-19T01:56:18.205Z,13.20
2022-10-19T01:58:46.546Z,13.30
2022-10-19T02:01:18.381Z,13.30
2022-10-19T02:03:49.477Z,13.40
2022-10-19T02:06:16.631Z,13.40
2022-10-19T02:08:50.078Z,13.50
2022-10-19T02:11:18.361Z,13.50
2022-10-19T02:13:48.579Z,13.50
2022-10-19T02:16:23.363Z,13.40
2022-10-19T02:18:52.073Z,13.30
2022-10-19T02:21:19.168Z,13.30
2022-10-19T02:23:47.533Z,13.30
2022-10-19T02:26:16.158Z,13.30
2022-10-19T02:28:42.943Z,13.30
2022-10-19T02:31:10.108Z,13.40
2022-10-19T02:33:36.943Z,13.40
2022-10-19T02:36:04.060Z,13.40
2022-10-19T02:38:31.057Z,13.40
2022-10-19T02:41:06.458Z,13.40
2022-10-19T02:43:37.222Z,13.40
2022-10-19T02:46:14.481Z,13.30
2022-10-19T02:48:42.784Z,13.40
2022-10-19T02:51:37.454Z,13.40
2022-10-19T02:54:06.299Z,13.40
2022-10-19T02:56:34.401Z,13.50
2022-10-19T02:59:02.062Z,13.50
2022-10-19T03:01:28.857Z,13.50
2022-10-19T03:03:55.589Z,13.60
2022-10-19T03:06:22.436Z,13.60
2022-10-19T03:08:49.132Z,13.50
2022-10-19T03:11:15.794Z,13.50
2022-10-19T03:13:43.403Z,13.50
2022-10-19T03:16:13.426Z,13.40
2022-10-19T03:18:40.215Z,13.40
2022-10-19T03:21:10.352Z,13.40
2022-10-19T03:23:38.367Z,13.30
2022-10-19T03:26:08.719Z,13.30
2022-10-19T03:28:38.244Z,13.30
2022-10-19T03:31:05.133Z,13.30
2022-10-19T03:33:31.840Z,13.30
2022-10-19T03:36:22.749Z,13.30
2022-10-19T03:38:54.330Z,13.20
2022-10-19T03:41:21.916Z,13.20
2022-10-19T03:43:48.961Z,13.20
2022-10-19T03:46:16.236Z,13.20
2022-10-19T03:48:43.005Z,13.20
2022-10-19T03:51:19.234Z,13.20
2022-10-19T03:53:46.801Z,13.20
2022-10-19T03:56:17.415Z,13.20
2022-10-19T03:58:45.601Z,13.20
2022-10-19T04:01:15.569Z,13.20
2022-10-19T04:03:42.639Z,13.20
2022-10-19T04:06:18.202Z,13.20
2022-10-19T04:08:49.195Z,13.20
2022-10-19T04:11:23.148Z,13.20
2022-10-19T04:13:51.270Z,13.20
2022-10-19T04:16:18.766Z,13.20
2022-10-19T04:18:45.945Z,13.30
2022-10-19T04:21:26.323Z,13.30
2022-10-19T04:23:56.938Z,13.30
2022-10-19T04:26:24.027Z,13.20
2022-10-19T04:28:50.814Z,13.30
2022-10-19T04:31:17.703Z,13.30
2022-10-19T04:36:12.357Z,13.00
2022-10-19T04:38:39.425Z,12.90
2022-10-19T04:41:09.181Z,13.00
2022-10-19T04:43:36.725Z,13.00
2022-10-19T04:46:13.004Z,13.10
2022-10-19T04:48:41.187Z,13.10
2022-10-19T04:51:08.858Z,13.10
2022-10-19T04:53:37.957Z,13.20
2022-10-19T04:56:06.683Z,13.10
2022-10-19T04:58:33.774Z,13.10
2022-10-19T05:01:07.141Z,13.00
2022-10-19T05:03:33.875Z,13.00
2022-10-19T05:06:00.777Z,13.00
2022-10-19T05:08:27.559Z,12.90
2022-10-19T05:10:54.331Z,12.90
2022-10-19T05:13:21.143Z,12.90
2022-10-19T05:15:58.467Z,12.90
2022-10-19T05:18:25.467Z,12.80
2022-10-19T05:20:59.767Z,12.80
2022-10-19T05:23:26.474Z,12.80
2022-10-19T05:26:04.959Z,12.80
2022-10-19T05:28:35.160Z,12.90
2022-10-19T05:31:12.394Z,12.90
2022-10-19T05:33:40.131Z,12.90
2022-10-19T05:36:34.889Z,12.90
2022-10-19T05:39:04.829Z,12.90
2022-10-19T05:41:32.185Z,12.80
2022-10-19T05:44:01.330Z,12.80
2022-10-19T05:46:29.719Z,12.80
2022-10-19T05:48:58.000Z,12.70
2022-10-19T05:51:26.395Z,12.80
2022-10-19T05:53:54.198Z,12.80
2022-10-19T05:56:24.446Z,12.80
2022-10-19T05:58:51.226Z,12.80
2022-10-19T06:01:19.469Z,12.80
2022-10-19T06:03:47.444Z,12.60
2022-10-19T06:06:14.225Z,12.60
2022-10-19T06:08:41.105Z,12.50
2022-10-19T06:11:13.793Z,12.50
2022-10-19T06:13:42.519Z,12.10
2022-10-19T06:16:10.547Z,12.10
2022-10-19T06:18:38.329Z,12.20
2022-10-19T06:21:08.004Z,12.20
2022-10-19T06:23:35.274Z,12.20
2022-10-19T06:26:04.475Z,12.30
2022-10-19T06:28:31.531Z,12.40
2022-10-19T06:31:01.584Z,12.40
2022-10-19T06:33:30.212Z,12.40
2022-10-19T06:36:04.537Z,12.50
2022-10-19T06:38:31.321Z,12.50
2022-10-19T06:41:00.982Z,12.30
2022-10-19T06:43:28.294Z,12.20
2022-10-19T06:45:55.674Z,12.20
2022-10-19T06:48:23.109Z,12.30
2022-10-19T06:50:57.953Z,12.30
2022-10-19T06:53:25.329Z,12.40
2022-10-19T06:55:52.044Z,12.30
2022-10-19T06:58:18.780Z,12.30
2022-10-19T07:00:45.565Z,12.40
2022-10-19T07:03:12.345Z,12.40
2022-10-19T07:05:39.168Z,12.40
2022-10-19T07:08:05.941Z,12.50
2022-10-19T07:10:32.710Z,12.50
2022-10-19T07:12:59.421Z,12.60
2022-10-19T07:15:26.188Z,12.50
2022-10-19T07:17:53.559Z,12.60
2022-10-19T07:20:20.382Z,12.60
2022-10-19T07:22:47.075Z,12.60
2022-10-19T07:25:14.182Z,12.60
2022-10-19T07:27:41.067Z,12.60
2022-10-19T07:30:08.387Z,12.80
2022-10-19T07:32:35.161Z,12.80
2022-10-19T07:35:01.837Z,12.70
2022-10-19T07:37:28.494Z,12.60
2022-10-19T07:39:55.193Z,12.70
2022-10-19T07:44:53.635Z,12.90
2022-10-19T07:47:20.442Z,12.90
2022-10-19T07:49:47.314Z,12.90
2022-10-19T07:52:14.066Z,12.80
2022-10-19T07:54:40.904Z,12.70
2022-10-19T07:57:07.675Z,12.80
2022-10-19T07:59:34.630Z,12.80
2022-10-19T08:02:04.566Z,12.90
2022-10-19T08:04:58.876Z,12.90
2022-10-19T08:07:18.153Z,12.80
2022-10-19T08:09:53.163Z,12.80
2022-10-19T08:12:20.545Z,12.60
2022-10-19T08:14:48.119Z,12.70
2022-10-19T08:17:17.778Z,12.70
2022-10-19T08:19:51.700Z,12.70
2022-10-19T08:22:19.441Z,12.80
2022-10-19T08:24:48.906Z,12.80
2022-10-19T08:27:18.316Z,12.70
2022-10-19T08:29:45.431Z,12.70
2022-10-19T08:32:15.112Z,12.80
2022-10-19T08:34:42.258Z,12.90
2022-10-19T08:37:19.932Z,13.10
2022-10-19T08:39:56.891Z,13.10
2022-10-19T08:42:35.641Z,13.30
2022-10-19T08:45:28.662Z,13.30
2022-10-19T08:48:00.624Z,13.30
2022-10-19T08:50:40.659Z,13.30
2022-10-19T08:53:15.542Z,13.30
2022-10-19T08:55:46.085Z,13.50
2022-10-19T08:58:37.431Z,13.40
2022-10-19T09:01:12.444Z,13.40
2022-10-19T09:04:06.059Z,13.40
2022-10-19T09:06:57.191Z,13.40
2022-10-19T09:09:25.425Z,13.40
2022-10-19T09:11:58.534Z,13.60
2022-10-19T09:14:27.963Z,13.60
2022-10-19T09:17:02.728Z,13.60
2022-10-19T09:19:31.906Z,13.70
2022-10-19T09:22:21.457Z,13.80
2022-10-19T09:24:54.623Z,13.90
2022-10-19T09:27:28.665Z,14.10
2022-10-19T09:29:58.426Z,14.20
2022-10-19T09:32:37.390Z,14.00
2022-10-19T09:35:21.349Z,14.00
2022-10-19T09:37:50.808Z,14.10
2022-10-19T09:40:24.256Z,14.00
2022-10-19T09:42:56.934Z,14.20
2022-10-19T09:45:44.232Z,14.30
2022-10-19T09:48:27.966Z,14.20
2022-10-19T09:51:03.354Z,14.20
2022-10-19T09:53:30.708Z,14.20
2022-10-19T09:56:06.606Z,14.50
2022-10-19T09:58:34.653Z,14.80
2022-10-19T10:01:03.323Z,15.10
2022-10-19T10:03:43.303Z,15.00
2022-10-19T10:06:15.018Z,15.10
2022-10-19T10:08:50.619Z,15.20
2022-10-19T10:11:38.216Z,15.30
2022-10-19T10:14:25.511Z,15.30
2022-10-19T10:17:19.340Z,15.50
2022-10-19T10:19:52.255Z,15.40
2022-10-19T10:22:28.492Z,15.50
2022-10-19T10:24:56.584Z,15.70
2022-10-19T10:27:33.336Z,15.90
2022-10-19T10:30:07.003Z,16.00
2022-10-19T10:32:47.268Z,16.20
2022-10-19T10:35:38.044Z,15.90
2022-10-19T10:38:14.138Z,15.60
2022-10-19T10:40:41.775Z,15.80
2022-10-19T10:43:15.680Z,15.80
2022-10-19T10:45:48.174Z,15.90
2022-10-19T10:48:31.992Z,16.40
2022-10-19T10:51:00.803Z,16.70
2022-10-19T10:53:35.276Z,16.90
2022-10-19T10:56:04.179Z,17.20
2022-10-19T10:58:43.607Z,17.40
2022-10-19T11:01:44.352Z,17.40
2022-10-19T11:04:28.519Z,17.70
2022-10-19T11:07:00.050Z,17.60
2022-10-19T11:09:36.232Z,16.80
2022-10-19T11:12:06.665Z,16.80
2022-10-19T11:14:57.685Z,17.10
2022-10-19T11:17:29.559Z,17.10
2022-10-19T11:19:56.427Z,16.80
2022-10-19T11:22:28.464Z,16.90
2022-10-19T11:25:17.197Z,16.70
2022-10-19T11:27:49.676Z,16.20
2022-10-19T11:30:19.744Z,15.90
2022-10-19T11:33:03.477Z,15.70
2022-10-19T11:35:34.794Z,15.90
2022-10-19T11:38:30.201Z,16.10
2022-10-19T11:41:16.772Z,16.30
2022-10-19T11:43:51.367Z,16.30
2022-10-19T11:46:38.310Z,16.20
2022-10-19T11:49:16.965Z,16.00
2022-10-19T11:52:01.704Z,15.80
2022-10-19T11:54:42.083Z,15.70
2022-10-19T11:57:44.831Z,16.10
2022-10-19T12:00:21.222Z,16.30
2022-10-19T12:03:18.455Z,16.70
2022-10-19T12:05:51.982Z,16.70
2022-10-19T12:08:21.472Z,16.70
2022-10-19T12:10:59.259Z,16.40
2022-10-19T12:13:38.586Z,16.30
2022-10-19T12:16:07.016Z,16.20
2022-10-19T12:18:47.468Z,15.90
2022-10-19T12:21:17.894Z,15.80
2022-10-19T12:23:46.932Z,15.90
2022-10-19T12:26:19.931Z,16.20
2022-10-19T12:28:52.025Z,16.40
2022-10-19T12:31:19.213Z,16.50
2022-10-19T12:33:53.863Z,16.80
2022-10-19T12:36:46.467Z,16.50
2022-10-19T12:39:33.359Z,16.30
2022-10-19T12:42:17.736Z,16.10
2022-10-19T12:45:08.532Z,16.00
2022-10-19T12:47:35.581Z,15.90
2022-10-19T12:50:02.786Z,15.80
2022-10-19T12:52:38.247Z,15.70
2022-10-19T12:55:24.866Z,15.50
2022-10-19T12:58:17.538Z,15.10
2022-10-19T13:01:01.944Z,15.20
2022-10-19T13:03:38.629Z,15.20
2022-10-19T13:06:28.418Z,15.30
2022-10-19T13:08:57.130Z,15.20
2022-10-19T13:11:24.838Z,15.20
2022-10-19T13:14:09.428Z,15.00
2022-10-19T13:16:36.187Z,15.10
2022-10-19T13:19:14.008Z,15.00
2022-10-19T13:22:20.217Z,15.00
2022-10-19T13:25:21.630Z,15.20
2022-10-19T13:28:07.573Z,15.30
2022-10-19T13:30:41.829Z,15.40
2022-10-19T13:33:31.217Z,15.60
2022-10-19T13:36:02.272Z,15.60
2022-10-19T13:38:47.149Z,15.40
2022-10-19T13:41:13.917Z,15.50
2022-10-19T13:43:43.741Z,15.60
2022-10-19T13:46:21.109Z,15.70
2022-10-19T13:49:32.829Z,15.50
2022-10-19T13:52:22.332Z,15.60
2022-10-19T13:55:19.607Z,15.70
2022-10-19T13:57:52.928Z,15.70
2022-10-19T14:00:28.351Z,15.60
2022-10-19T14:03:06.721Z,15.40
2022-10-19T14:06:03.640Z,15.40
2022-10-19T14:08:33.522Z,15.40
2022-10-19T14:11:21.547Z,15.50
2022-10-19T14:14:18.028Z,15.30
2022-10-19T14:17:12.022Z,15.30
2022-10-19T14:19:45.455Z,15.40
2022-10-19T14:22:38.211Z,15.30
2022-10-19T14:25:21.154Z,15.30
2022-10-19T14:27:50.355Z,15.30
2022-10-19T14:30:37.590Z,15.20
2022-10-19T14:33:10.606Z,15.30
2022-10-19T14:35:41.435Z,15.30
2022-10-19T14:38:16.467Z,15.50
2022-10-19T14:40:43.227Z,15.50
2022-10-19T14:43:33.148Z,15.50
2022-10-19T14:46:13.300Z,15.60
2022-10-19T14:48:45.588Z,15.50
2022-10-19T14:51:15.450Z,15.60
2022-10-19T14:54:08.075Z,15.60
2022-10-19T14:56:55.841Z,15.60
2022-10-19T14:59:44.871Z,15.60
2022-10-19T15:02:33.602Z,15.60
2022-10-19T15:05:03.194Z,15.50
2022-10-19T15:07:39.527Z,15.60
2022-10-19T15:10:29.436Z,15.60
2022-10-19T15:13:05.501Z,15.60
2022-10-19T15:15:34.407Z,15.60
2022-10-19T15:18:01.188Z,15.60
2022-10-19T15:20:34.080Z,15.60
2022-10-19T15:23:33.841Z,15.70
2022-10-19T15:26:19.531Z,15.70
2022-10-19T15:28:47.094Z,15.40
2022-10-19T15:31:24.149Z,15.40
2022-10-19T15:33:57.145Z,15.40
2022-10-19T15:36:25.303Z,15.40
2022-10-19T15:39:06.369Z,15.40
2022-10-19T15:41:44.961Z,15.40
2022-10-19T15:44:48.701Z,15.40
2022-10-19T15:47:15.637Z,15.30
2022-10-19T15:49:42.811Z,15.40
2022-10-19T15:52:16.989Z,15.20
2022-10-19T15:54:47.103Z,15.10
2022-10-19T15:57:29.281Z,14.90
2022-10-19T15:59:57.495Z,14.80
2022-10-19T16:02:25.236Z,14.90
2022-10-19T16:04:53.616Z,14.90
2022-10-19T16:07:27.000Z,15.00
2022-10-19T16:09:54.837Z,14.90
2022-10-19T16:12:22.810Z,14.90
2022-10-19T16:14:49.734Z,14.80
2022-10-19T16:17:16.721Z,14.80
2022-10-19T16:19:44.682Z,14.80
2022-10-19T16:22:13.873Z,14.90
2022-10-19T16:24:40.880Z,14.80
2022-10-19T16:27:08.710Z,14.80
2022-10-19T16:29:35.668Z,14.70
2022-10-19T16:32:02.417Z,14.60
2022-10-19T16:34:29.230Z,14.60
2022-10-19T16:36:55.991Z,14.50
2022-10-19T16:39:25.406Z,14.40
2022-10-19T16:41:52.259Z,14.30
2022-10-19T16:44:18.947Z,14.20
2022-10-19T16:46:45.878Z,14.30
2022-10-19T16:49:12.788Z,14.40
2022-10-19T16:51:41.313Z,14.50
2022-10-19T16:54:10.740Z,14.40
2022-10-19T16:56:43.566Z,14.50
2022-10-19T16:59:13.632Z,14.50
2022-10-19T17:01:41.857Z,14.50
2022-10-19T17:04:08.594Z,14.50
2022-10-19T17:06:35.350Z,14.50
2022-10-19T17:11:49.240Z,14.50
2022-10-19T17:14:16.082Z,14.50
2022-10-19T17:16:43.098Z,14.50
2022-10-19T17:19:11.594Z,14.50
2022-10-19T17:21:39.198Z,14.70
2022-10-19T17:24:08.824Z,14.50
2022-10-19T17:26:41.917Z,14.50
2022-10-19T17:29:09.844Z,14.30
2022-10-19T17:31:37.987Z,14.30
2022-10-19T17:34:05.781Z,14.30
2022-10-19T17:36:36.327Z,14.20
2022-10-19T17:39:07.506Z,14.10
2022-10-19T17:41:35.201Z,13.80
2022-10-19T17:44:04.261Z,13.70
2022-10-19T17:46:33.539Z,13.70
2022-10-19T17:49:00.790Z,13.60
2022-10-19T17:51:30.357Z,13.70
2022-10-19T17:54:00.149Z,13.60
2022-10-19T17:56:28.329Z,13.50
2022-10-19T17:58:56.589Z,13.50
2022-10-19T18:01:24.398Z,13.40
2022-10-19T18:03:51.767Z,13.40
2022-10-19T18:06:24.883Z,13.40
2022-10-19T18:08:53.764Z,13.40
2022-10-19T18:11:26.432Z,13.40
2022-10-19T18:13:56.863Z,13.50
2022-10-19T18:16:26.022Z,13.30
2022-10-19T18:18:55.625Z,13.30
2022-10-19T18:21:27.936Z,13.10
2022-10-19T18:23:57.077Z,13.10
2022-10-19T18:26:26.298Z,13.20
2022-10-19T18:28:55.093Z,13.10
2022-10-19T18:31:25.057Z,13.00
2022-10-19T18:33:58.806Z,13.00
2022-10-19T18:36:25.871Z,13.10
2022-10-19T18:38:55.203Z,13.10
2022-10-19T18:41:22.726Z,13.10
2022-10-19T18:44:10.991Z,13.10
2022-10-19T18:46:38.181Z,13.00
2022-10-19T18:49:08.134Z,13.10
2022-10-19T18:51:35.401Z,13.10
2022-10-19T18:54:02.267Z,13.00
2022-10-19T18:56:33.414Z,12.90
2022-10-19T18:59:00.150Z,12.90
2022-10-19T19:01:28.490Z,12.90
2022-10-19T19:03:57.403Z,12.90
2022-10-19T19:06:26.878Z,12.80
2022-10-19T19:08:58.138Z,12.80
2022-10-19T19:11:27.075Z,12.70
2022-10-19T19:13:59.816Z,12.70
2022-10-19T19:16:28.131Z,12.70
2022-10-19T19:18:55.553Z,12.70
2022-10-19T19:21:27.688Z,12.70
2022-10-19T19:23:55.858Z,12.70
2022-10-19T19:26:24.541Z,12.60
2022-10-19T19:28:51.821Z,12.50
2022-10-19T19:31:19.872Z,12.50
2022-10-19T19:33:47.855Z,12.50
2022-10-19T19:36:16.766Z,12.50
2022-10-19T19:38:44.503Z,12.50
2022-10-19T19:41:13.797Z,12.50
2022-10-19T19:43:41.077Z,12.40
2022-10-19T19:46:12.546Z,12.40
2022-10-19T19:48:41.907Z,12.40
2022-10-19T19:51:11.137Z,12.30
2022-10-19T19:53:38.436Z,12.30
2022-10-19T19:56:10.492Z,12.30
2022-10-19T19:58:37.820Z,12.20
2022-10-19T20:01:12.501Z,12.20
2022-10-19T20:03:41.208Z,12.20
2022-10-19T20:06:08.405Z,12.20
2022-10-19T20:08:36.801Z,12.20
2022-10-19T20:11:09.550Z,12.20
2022-10-19T20:13:36.857Z,12.30
2022-10-19T20:16:12.646Z,12.30
2022-10-19T20:18:45.970Z,12.20
2022-10-19T20:21:13.674Z,12.20
2022-10-19T20:23:40.594Z,12.20
2022-10-19T20:26:21.279Z,12.20
2022-10-19T20:28:50.014Z,12.10
2022-10-19T20:31:17.327Z,12.10
2022-10-19T20:33:45.071Z,12.10
2022-10-19T20:36:15.927Z,12.10
2022-10-19T20:38:48.983Z,12.10
2022-10-19T20:41:17.028Z,12.10
2022-10-19T20:43:44.133Z,12.10
2022-10-19T20:46:17.811Z,12.10
2022-10-19T20:48:45.388Z,12.10
2022-10-19T20:51:12.191Z,12.20
2022-10-19T20:53:39.277Z,12.10
2022-10-19T20:56:07.715Z,12.10
2022-10-19T20:58:35.327Z,12.20
2022-10-19T21:01:10.906Z,12.20
2022-10-19T21:03:38.094Z,12.20
2022-10-19T21:06:07.266Z,12.20
2022-10-19T21:08:35.413Z,12.30
2022-10-19T21:11:11.134Z,12.30
2022-10-19T21:13:37.932Z,12.20
2022-10-19T21:16:13.131Z,12.20
2022-10-19T21:18:40.571Z,12.20
2022-10-19T21:21:18.130Z,12.20
2022-10-19T21:23:46.312Z,12.20
2022-10-19T21:26:13.726Z,12.30
2022-10-19T21:28:45.579Z,12.20
2022-10-19T21:31:12.374Z,12.30
2022-10-19T21:33:39.119Z,12.30
2022-10-19T21:36:07.294Z,12.30
2022-10-19T21:38:34.627Z,12.20
2022-10-19T21:41:04.158Z,12.20
2022-10-19T21:43:30.957Z,12.20
2022-10-19T21:45:57.790Z,12.20
2022-10-19T21:48:24.525Z,12.20
2022-10-19T21:50:51.294Z,12.20
2022-10-19T21:53:23.683Z,12.20
2022-10-19T21:55:52.695Z,12.20
2022-10-19T21:58:23.137Z,12.10
2022-10-19T22:00:49.919Z,12.20
2022-10-19T22:03:19.120Z,12.20
2022-10-19T22:05:52.517Z,12.20
2022-10-19T22:08:19.404Z,12.20
2022-10-19T22:10:46.131Z,12.20
2022-10-19T22:13:12.914Z,12.30
2022-10-19T22:15:40.832Z,12.30
2022-10-19T22:18:08.297Z,12.30
2022-10-19T22:20:36.907Z,12.10
2022-10-19T22:23:05.650Z,12.10
2022-10-19T22:25:33.673Z,12.10
2022-10-19T22:28:00.484Z,12.10
2022-10-19T22:30:27.617Z,12.00
2022-10-19T22:32:54.380Z,12.00
2022-10-19T22:35:22.118Z,11.90
2022-10-19T22:37:48.808Z,12.00
2022-10-19T22:40:15.583Z,12.00
2022-10-19T22:42:42.262Z,11.90
2022-10-19T22:45:09.209Z,11.90
2022-10-19T22:47:35.905Z,12.00
2022-10-19T22:50:02.682Z,12.00
2022-10-19T22:52:29.359Z,11.90
2022-10-19T22:54:56.097Z,12.00
2022-10-19T22:57:22.891Z,12.00
2022-10-19T22:59:49.587Z,11.90
2022-10-19T23:02:16.338Z,12.00
2022-10-19T23:04:43.032Z,12.10
2022-10-19T23:09:41.431Z,12.00
2022-10-19T23:12:08.110Z,11.90
2022-10-19T23:14:34.789Z,11.90
2022-10-19T23:17:01.454Z,11.90
2022-10-19T23:19:28.166Z,12.00
2022-10-19T23:21:54.885Z,12.00
2022-10-19T23:24:21.667Z,12.10
2022-10-19T23:26:48.442Z,12.10
2022-10-19T23:29:15.185Z,12.30
2022-10-19T23:31:41.882Z,12.30
2022-10-19T23:34:08.572Z,12.20
2022-10-19T23:36:35.222Z,12.30
2022-10-19T23:39:01.910Z,12.30
2022-10-19T23:41:28.629Z,12.40
2022-10-19T23:43:55.314Z,12.40
2022-10-19T23:46:22.049Z,12.40
2022-10-19T23:48:48.907Z,12.40
2022-10-19T23:51:20.830Z,12.50
2022-10-19T23:53:49.447Z,12.60
2022-10-19T23:56:19.508Z,12.50
2022-10-19T23:58:47.072Z,12.50
